sensor_id;sensor_type;location;lat;lon;timestamp;temperature;humidity
7958;DHT22;4024;52.172;5.378;2022-10-17T00:00:43;16.40;99.90
7958;DHT22;4024;52.172;5.378;2022-10-17T00:03:08;16.40;99.90
7958;DHT22;4024;52.172;5.378;2022-10-17T00:05:42;16.30;99.90
7958;DHT22;4024;52.172;5.378;2022-10-17T00:08:09;16.30;99.90
7958;DHT22;4024;52.172;5.378;2022-10-17T00:10:36;16.50;99.90
7958;DHT22;4024;52.172;5.378;2022-10-17T00:13:02;16.30;99.90
7958;DHT22;4024;52.172;5.378;2022-10-17T00:15:28;16.30;99.90
7958;DHT22;4024;52.172;5.378;2022-10-17T00:17:54;16.20;99.90
7958;DHT22;4024;52.172;5.378;2022-10-17T00:20:19;16.30;99.90
7958;DHT22;4024;52.172;5.378;2022-10-17T00:22:45;16.20;99.90
7958;DHT22;4024;52.172;5.378;2022-10-17T00:25:11;16.20;99.90
7958;DHT22;4024;52.172;5.378;2022-10-17T00:27:38;16.20;99.90
7958;DHT22;4024;52.172;5.378;2022-10-17T00:30:06;16.20;99.90
7958;DHT22;4024;52.172;5.378;2022-10-17T00:32:32;16.20;99.90
7958;DHT22;4024;52.172;5.378;2022-10-17T00:34:58;16.20;99.90
7958;DHT22;4024;52.172;5.378;2022-10-17T00:37:24;16.20;99.90
7958;DHT22;4024;52.172;5.378;2022-10-17T00:39:50;16.20;99.90
7958;DHT22;4024;52.172;5.378;2022-10-17T00:42:15;16.20;99.90
7958;DHT22;4024;52.172;5.378;2022-10-17T00:47:16;16.20;99.90
7958;DHT22;4024;52.172;5.378;2022-10-17T00:49:44;16.20;99.90
7958;DHT22;4024;52.172;5.378;2022-10-17T00:52:21;16.20;99.90
7958;DHT22;4024;52.172;5.378;2022-10-17T00:54:53;16.20;99.90
7958;DHT22;4024;52.172;5.378;2022-10-17T00:57:20;16.20;99.90
7958;DHT22;4024;52.172;5.378;2022-10-17T00:59:48;16.20;99.90
7958;DHT22;4024;52.172;5.378;2022-10-17T01:02:18;16.20;99.90
7958;DHT22;4024;52.172;5.378;2022-10-17T01:04:46;16.20;99.90
7958;DHT22;4024;52.172;5.378;2022-10-17T01:07:12;16.20;99.90
7958;DHT22;4024;52.172;5.378;2022-10-17T01:09:38;16.20;99.90
7958;DHT22;4024;52.172;5.378;2022-10-17T01:31:21;16.20;99.90
7958;DHT22;4024;52.172;5.378;2022-10-17T01:33:58;16.20;99.90
7958;DHT22;4024;52.172;5.378;2022-10-17T01:47:30;16.20;99.90
7958;DHT22;4024;52.172;5.378;2022-10-17T01:50:02;16.10;99.90
7958;DHT22;4024;52.172;5.378;2022-10-17T01:52:52;16.10;99.90
7958;DHT22;4024;52.172;5.378;2022-10-17T01:55:29;16.10;99.90
7958;DHT22;4024;52.172;5.378;2022-10-17T01:58:02;16.10;99.90
7958;DHT22;4024;52.172;5.378;2022-10-17T02:00:30;16.10;99.90
7958;DHT22;4024;52.172;5.378;2022-10-17T02:03:02;16.10;99.90
7958;DHT22;4024;52.172;5.378;2022-10-17T02:05:32;16.10;99.90
7958;DHT22;4024;52.172;5.378;2022-10-17T02:07:59;16.20;99.90
7958;DHT22;4024;52.172;5.378;2022-10-17T02:10:38;16.10;99.90
7958;DHT22;4024;52.172;5.378;2022-10-17T02:13:08;16.10;99.90
7958;DHT22;4024;52.172;5.378;2022-10-17T02:21:06;16.20;99.90
7958;DHT22;4024;52.172;5.378;2022-10-17T02:26:16;16.20;99.90
7958;DHT22;4024;52.172;5.378;2022-10-17T02:31:44;16.20;99.90
7958;DHT22;4024;52.172;5.378;2022-10-17T02:34:47;16.20;99.90
7958;DHT22;4024;52.172;5.378;2022-10-17T02:37:18;16.20;99.90
7958;DHT22;4024;52.172;5.378;2022-10-17T02:39:47;16.20;99.90
7958;DHT22;4024;52.172;5.378;2022-10-17T02:42:14;16.20;99.90
7958;DHT22;4024;52.172;5.378;2022-10-17T02:44:42;16.20;99.90
7958;DHT22;4024;52.172;5.378;2022-10-17T02:47:22;16.30;99.90
7958;DHT22;4024;52.172;5.378;2022-10-17T02:49:51;16.30;99.90
7958;DHT22;4024;52.172;5.378;2022-10-17T02:52:38;16.30;99.90
7958;DHT22;4024;52.172;5.378;2022-10-17T02:55:31;16.30;99.90
7958;DHT22;4024;52.172;5.378;2022-10-17T02:58:07;16.20;99.90
7958;DHT22;4024;52.172;5.378;2022-10-17T03:00:37;16.30;99.90
7958;DHT22;4024;52.172;5.378;2022-10-17T03:03:24;16.30;99.90
7958;DHT22;4024;52.172;5.378;2022-10-17T03:05:50;16.30;99.90
7958;DHT22;4024;52.172;5.378;2022-10-17T03:08:17;16.30;99.90
7958;DHT22;4024;52.172;5.378;2022-10-17T03:10:42;16.40;99.90
7958;DHT22;4024;52.172;5.378;2022-10-17T03:13:08;16.30;99.90
7958;DHT22;4024;52.172;5.378;2022-10-17T03:15:34;16.30;99.90
7958;DHT22;4024;52.172;5.378;2022-10-17T03:17:59;16.30;99.90
7958;DHT22;4024;52.172;5.378;2022-10-17T03:20:25;16.30;99.90
7958;DHT22;4024;52.172;5.378;2022-10-17T03:22:50;16.30;99.90
7958;DHT22;4024;52.172;5.378;2022-10-17T03:25:16;16.40;99.90
7958;DHT22;4024;52.172;5.378;2022-10-17T03:27:42;16.40;99.90
7958;DHT22;4024;52.172;5.378;2022-10-17T03:30:08;16.50;99.90
7958;DHT22;4024;52.172;5.378;2022-10-17T03:32:34;16.50;99.90
7958;DHT22;4024;52.172;5.378;2022-10-17T03:34:59;16.50;99.90
7958;DHT22;4024;52.172;5.378;2022-10-17T03:37:25;16.50;99.90
7958;DHT22;4024;52.172;5.378;2022-10-17T03:39:51;16.60;99.90
7958;DHT22;4024;52.172;5.378;2022-10-17T03:42:16;16.60;99.90
7958;DHT22;4024;52.172;5.378;2022-10-17T03:44:42;16.70;99.90
7958;DHT22;4024;52.172;5.378;2022-10-17T03:47:07;16.60;99.90
7958;DHT22;4024;52.172;5.378;2022-10-17T03:49:33;16.70;99.90
7958;DHT22;4024;52.172;5.378;2022-10-17T03:51:58;16.70;99.90
7958;DHT22;4024;52.172;5.378;2022-10-17T03:54:24;16.70;99.90
7958;DHT22;4024;52.172;5.378;2022-10-17T03:56:49;16.80;99.90
7958;DHT22;4024;52.172;5.378;2022-10-17T03:59:15;16.80;99.90
7958;DHT22;4024;52.172;5.378;2022-10-17T04:01:42;16.80;99.90
7958;DHT22;4024;52.172;5.378;2022-10-17T04:04:08;16.80;99.90
7958;DHT22;4024;52.172;5.378;2022-10-17T04:06:34;16.90;99.90
7958;DHT22;4024;52.172;5.378;2022-10-17T04:09:00;16.90;99.90
7958;DHT22;4024;52.172;5.378;2022-10-17T04:11:26;16.90;99.90
7958;DHT22;4024;52.172;5.378;2022-10-17T04:13:56;16.90;99.90
7958;DHT22;4024;52.172;5.378;2022-10-17T04:16:22;17.00;99.90
7958;DHT22;4024;52.172;5.378;2022-10-17T04:18:53;17.00;99.90
7958;DHT22;4024;52.172;5.378;2022-10-17T04:21:19;17.00;99.90
7958;DHT22;4024;52.172;5.378;2022-10-17T04:23:45;17.00;99.90
7958;DHT22;4024;52.172;5.378;2022-10-17T04:26:11;17.00;99.90
7958;DHT22;4024;52.172;5.378;2022-10-17T04:28:36;17.00;99.90
7958;DHT22;4024;52.172;5.378;2022-10-17T04:31:05;17.10;99.90
7958;DHT22;4024;52.172;5.378;2022-10-17T04:33:31;17.10;99.90
7958;DHT22;4024;52.172;5.378;2022-10-17T04:36:02;17.00;99.90
7958;DHT22;4024;52.172;5.378;2022-10-17T04:38:28;17.10;99.90
7958;DHT22;4024;52.172;5.378;2022-10-17T04:40:58;17.10;99.90
7958;DHT22;4024;52.172;5.378;2022-10-17T04:43:26;17.10;99.90
7958;DHT22;4024;52.172;5.378;2022-10-17T04:45:52;17.10;99.90
7958;DHT22;4024;52.172;5.378;2022-10-17T04:48:18;17.00;99.90
7958;DHT22;4024;52.172;5.378;2022-10-17T04:50:52;17.10;99.90
7958;DHT22;4024;52.172;5.378;2022-10-17T04:53:18;17.10;99.90
7958;DHT22;4024;52.172;5.378;2022-10-17T04:55:44;17.10;99.90
7958;DHT22;4024;52.172;5.378;2022-10-17T04:58:10;17.20;99.90
7958;DHT22;4024;52.172;5.378;2022-10-17T05:00:35;17.10;99.90
7958;DHT22;4024;52.172;5.378;2022-10-17T05:03:01;17.10;99.90
7958;DHT22;4024;52.172;5.378;2022-10-17T05:05:26;17.20;99.90
7958;DHT22;4024;52.172;5.378;2022-10-17T05:07:52;17.20;99.90
7958;DHT22;4024;52.172;5.378;2022-10-17T05:10:18;17.20;99.90
7958;DHT22;4024;52.172;5.378;2022-10-17T05:12:45;17.20;99.90
7958;DHT22;4024;52.172;5.378;2022-10-17T05:15:10;17.20;99.90
7958;DHT22;4024;52.172;5.378;2022-10-17T05:17:36;17.20;99.90
7958;DHT22;4024;52.172;5.378;2022-10-17T05:20:02;17.20;99.90
7958;DHT22;4024;52.172;5.378;2022-10-17T05:22:27;17.20;99.90
7958;DHT22;4024;52.172;5.378;2022-10-17T05:24:53;17.30;99.90
7958;DHT22;4024;52.172;5.378;2022-10-17T05:27:19;17.20;99.90
7958;DHT22;4024;52.172;5.378;2022-10-17T05:29:44;17.20;99.90
7958;DHT22;4024;52.172;5.378;2022-10-17T05:32:10;17.20;99.90
7958;DHT22;4024;52.172;5.378;2022-10-17T05:34:35;17.30;99.90
7958;DHT22;4024;52.172;5.378;2022-10-17T05:37:01;17.30;99.90
7958;DHT22;4024;52.172;5.378;2022-10-17T05:39:27;17.30;99.90
7958;DHT22;4024;52.172;5.378;2022-10-17T05:41:52;17.20;99.90
7958;DHT22;4024;52.172;5.378;2022-10-17T05:44:18;17.30;99.90
7958;DHT22;4024;52.172;5.378;2022-10-17T05:46:43;17.30;99.90
7958;DHT22;4024;52.172;5.378;2022-10-17T05:49:09;17.30;99.90
7958;DHT22;4024;52.172;5.378;2022-10-17T05:51:35;17.30;99.90
7958;DHT22;4024;52.172;5.378;2022-10-17T05:54:01;17.30;99.90
7958;DHT22;4024;52.172;5.378;2022-10-17T05:56:26;17.30;99.90
7958;DHT22;4024;52.172;5.378;2022-10-17T05:58:52;17.30;99.90
7958;DHT22;4024;52.172;5.378;2022-10-17T06:01:18;17.40;99.90
7958;DHT22;4024;52.172;5.378;2022-10-17T06:03:43;17.30;99.90
7958;DHT22;4024;52.172;5.378;2022-10-17T06:06:11;17.40;99.90
7958;DHT22;4024;52.172;5.378;2022-10-17T06:08:37;17.40;99.90
7958;DHT22;4024;52.172;5.378;2022-10-17T06:11:03;17.40;99.90
7958;DHT22;4024;52.172;5.378;2022-10-17T06:13:29;17.40;99.90
7958;DHT22;4024;52.172;5.378;2022-10-17T06:15:55;17.40;99.90
7958;DHT22;4024;52.172;5.378;2022-10-17T06:18:21;17.40;99.90
7958;DHT22;4024;52.172;5.378;2022-10-17T06:20:47;17.40;99.90
7958;DHT22;4024;52.172;5.378;2022-10-17T06:23:13;17.40;99.90
7958;DHT22;4024;52.172;5.378;2022-10-17T06:25:38;17.40;99.90
7958;DHT22;4024;52.172;5.378;2022-10-17T06:28:04;17.40;99.90
7958;DHT22;4024;52.172;5.378;2022-10-17T06:30:30;17.40;99.90
7958;DHT22;4024;52.172;5.378;2022-10-17T06:32:55;17.40;99.90
7958;DHT22;4024;52.172;5.378;2022-10-17T06:35:21;17.40;99.90
7958;DHT22;4024;52.172;5.378;2022-10-17T06:37:47;17.40;99.90
7958;DHT22;4024;52.172;5.378;2022-10-17T06:40:13;17.40;99.90
7958;DHT22;4024;52.172;5.378;2022-10-17T06:42:41;17.40;99.90
7958;DHT22;4024;52.172;5.378;2022-10-17T06:45:07;17.50;99.90
7958;DHT22;4024;52.172;5.378;2022-10-17T06:47:34;17.40;99.90
7958;DHT22;4024;52.172;5.378;2022-10-17T06:49:59;17.50;99.90
7958;DHT22;4024;52.172;5.378;2022-10-17T06:52:25;17.50;99.90
7958;DHT22;4024;52.172;5.378;2022-10-17T06:54:51;17.50;99.90
7958;DHT22;4024;52.172;5.378;2022-10-17T06:57:16;17.50;99.90
7958;DHT22;4024;52.172;5.378;2022-10-17T06:59:42;17.50;99.90
7958;DHT22;4024;52.172;5.378;2022-10-17T07:02:11;17.50;99.90
7958;DHT22;4024;52.172;5.378;2022-10-17T07:04:37;17.50;99.90
7958;DHT22;4024;52.172;5.378;2022-10-17T07:07:03;17.60;99.90
7958;DHT22;4024;52.172;5.378;2022-10-17T07:09:30;17.60;99.90
7958;DHT22;4024;52.172;5.378;2022-10-17T07:11:56;17.60;99.90
7958;DHT22;4024;52.172;5.378;2022-10-17T07:14:22;17.70;99.90
7958;DHT22;4024;52.172;5.378;2022-10-17T07:16:48;17.70;99.90
7958;DHT22;4024;52.172;5.378;2022-10-17T07:19:14;17.70;99.90
7958;DHT22;4024;52.172;5.378;2022-10-17T07:21:39;17.70;99.90
7958;DHT22;4024;52.172;5.378;2022-10-17T07:24:05;17.80;99.90
7958;DHT22;4024;52.172;5.378;2022-10-17T07:26:32;17.60;99.90
7958;DHT22;4024;52.172;5.378;2022-10-17T07:28:57;17.80;99.90
7958;DHT22;4024;52.172;5.378;2022-10-17T07:31:23;17.80;99.90
7958;DHT22;4024;52.172;5.378;2022-10-17T07:33:49;17.80;99.90
7958;DHT22;4024;52.172;5.378;2022-10-17T07:36:16;17.80;99.90
7958;DHT22;4024;52.172;5.378;2022-10-17T07:38:42;17.90;99.90
7958;DHT22;4024;52.172;5.378;2022-10-17T07:41:10;17.90;99.90
7958;DHT22;4024;52.172;5.378;2022-10-17T07:43:36;17.90;99.90
7958;DHT22;4024;52.172;5.378;2022-10-17T07:46:03;17.90;99.90
7958;DHT22;4024;52.172;5.378;2022-10-17T07:48:30;17.90;99.90
7958;DHT22;4024;52.172;5.378;2022-10-17T07:50:55;17.90;99.90
7958;DHT22;4024;52.172;5.378;2022-10-17T07:53:21;17.90;99.90
7958;DHT22;4024;52.172;5.378;2022-10-17T07:55:47;17.90;99.90
7958;DHT22;4024;52.172;5.378;2022-10-17T07:58:14;18.00;99.90
7958;DHT22;4024;52.172;5.378;2022-10-17T08:00:40;18.00;99.90
7958;DHT22;4024;52.172;5.378;2022-10-17T08:03:06;18.00;99.90
7958;DHT22;4024;52.172;5.378;2022-10-17T08:05:32;18.00;99.90
7958;DHT22;4024;52.172;5.378;2022-10-17T08:07:58;18.00;99.90
7958;DHT22;4024;52.172;5.378;2022-10-17T08:10:24;18.00;99.90
7958;DHT22;4024;52.172;5.378;2022-10-17T08:12:52;18.00;99.90
7958;DHT22;4024;52.172;5.378;2022-10-17T08:15:18;18.00;99.90
7958;DHT22;4024;52.172;5.378;2022-10-17T08:17:44;18.00;99.90
7958;DHT22;4024;52.172;5.378;2022-10-17T08:20:10;18.00;99.90
7958;DHT22;4024;52.172;5.378;2022-10-17T08:22:36;18.10;99.90
7958;DHT22;4024;52.172;5.378;2022-10-17T08:25:01;18.10;99.90
7958;DHT22;4024;52.172;5.378;2022-10-17T08:27:27;18.10;99.90
7958;DHT22;4024;52.172;5.378;2022-10-17T08:29:54;18.10;99.90
7958;DHT22;4024;52.172;5.378;2022-10-17T08:32:21;18.10;99.90
7958;DHT22;4024;52.172;5.378;2022-10-17T08:34:49;18.10;99.90
7958;DHT22;4024;52.172;5.378;2022-10-17T08:37:15;18.20;99.90
7958;DHT22;4024;52.172;5.378;2022-10-17T08:39:41;18.20;99.90
7958;DHT22;4024;52.172;5.378;2022-10-17T08:47:36;18.20;99.90
7958;DHT22;4024;52.172;5.378;2022-10-17T08:50:05;18.30;99.90
7958;DHT22;4024;52.172;5.378;2022-10-17T08:52:35;18.30;99.90
7958;DHT22;4024;52.172;5.378;2022-10-17T08:55:07;18.30;99.90
7958;DHT22;4024;52.172;5.378;2022-10-17T08:57:36;18.30;99.90
7958;DHT22;4024;52.172;5.378;2022-10-17T09:00:02;18.30;99.90
7958;DHT22;4024;52.172;5.378;2022-10-17T09:03:04;18.30;99.90
7958;DHT22;4024;52.172;5.378;2022-10-17T09:08:34;18.30;99.90
7958;DHT22;4024;52.172;5.378;2022-10-17T09:17:42;18.40;99.90
7958;DHT22;4024;52.172;5.378;2022-10-17T09:20:19;18.40;99.90
7958;DHT22;4024;52.172;5.378;2022-10-17T09:23:13;18.40;99.90
7958;DHT22;4024;52.172;5.378;2022-10-17T09:25:45;18.50;99.90
7958;DHT22;4024;52.172;5.378;2022-10-17T09:28:30;18.40;99.90
7958;DHT22;4024;52.172;5.378;2022-10-17T09:33:41;18.50;99.90
7958;DHT22;4024;52.172;5.378;2022-10-17T09:36:12;18.50;99.90
7958;DHT22;4024;52.172;5.378;2022-10-17T09:38:41;18.50;99.90
7958;DHT22;4024;52.172;5.378;2022-10-17T09:41:32;18.50;99.90
7958;DHT22;4024;52.172;5.378;2022-10-17T09:44:11;18.50;99.90
7958;DHT22;4024;52.172;5.378;2022-10-17T09:46:38;18.50;99.90
7958;DHT22;4024;52.172;5.378;2022-10-17T09:49:27;18.50;99.90
7958;DHT22;4024;52.172;5.378;2022-10-17T09:51:53;18.60;99.90
7958;DHT22;4024;52.172;5.378;2022-10-17T09:54:23;18.60;99.90
7958;DHT22;4024;52.172;5.378;2022-10-17T09:57:04;18.60;99.90
7958;DHT22;4024;52.172;5.378;2022-10-17T09:59:45;18.60;99.90
7958;DHT22;4024;52.172;5.378;2022-10-17T10:07:23;18.70;99.90
7958;DHT22;4024;52.172;5.378;2022-10-17T10:09:49;18.70;99.90
7958;DHT22;4024;52.172;5.378;2022-10-17T10:12:30;18.70;99.90
7958;DHT22;4024;52.172;5.378;2022-10-17T10:14:56;18.70;99.90
7958;DHT22;4024;52.172;5.378;2022-10-17T10:17:38;18.80;99.90
7958;DHT22;4024;52.172;5.378;2022-10-17T10:20:29;18.80;99.90
7958;DHT22;4024;52.172;5.378;2022-10-17T10:23:12;18.80;99.90
7958;DHT22;4024;52.172;5.378;2022-10-17T10:25:52;18.80;99.90
7958;DHT22;4024;52.172;5.378;2022-10-17T10:28:19;18.80;99.90
7958;DHT22;4024;52.172;5.378;2022-10-17T10:30:48;18.80;99.90
7958;DHT22;4024;52.172;5.378;2022-10-17T10:33:14;18.90;99.90
7958;DHT22;4024;52.172;5.378;2022-10-17T10:35:40;18.90;99.90
7958;DHT22;4024;52.172;5.378;2022-10-17T10:38:14;18.90;99.90
7958;DHT22;4024;52.172;5.378;2022-10-17T10:40:49;18.90;99.90
7958;DHT22;4024;52.172;5.378;2022-10-17T10:43:44;18.90;99.90
7958;DHT22;4024;52.172;5.378;2022-10-17T10:46:18;18.90;99.90
7958;DHT22;4024;52.172;5.378;2022-10-17T10:51:20;18.90;99.90
7958;DHT22;4024;52.172;5.378;2022-10-17T10:54:07;18.90;99.90
7958;DHT22;4024;52.172;5.378;2022-10-17T10:56:41;18.90;99.90
7958;DHT22;4024;52.172;5.378;2022-10-17T11:02:09;18.90;99.90
7958;DHT22;4024;52.172;5.378;2022-10-17T11:04:41;19.00;99.90
7958;DHT22;4024;52.172;5.378;2022-10-17T11:07:24;19.00;99.90
7958;DHT22;4024;52.172;5.378;2022-10-17T11:12:50;19.10;99.90
7958;DHT22;4024;52.172;5.378;2022-10-17T11:15:30;19.10;99.90
7958;DHT22;4024;52.172;5.378;2022-10-17T11:18:07;19.10;99.90
7958;DHT22;4024;52.172;5.378;2022-10-17T11:23:39;19.10;99.90
7958;DHT22;4024;52.172;5.378;2022-10-17T11:26:11;19.20;99.90
7958;DHT22;4024;52.172;5.378;2022-10-17T11:28:38;19.20;99.90
7958;DHT22;4024;52.172;5.378;2022-10-17T11:31:11;19.20;99.90
7958;DHT22;4024;52.172;5.378;2022-10-17T11:36:17;19.30;99.90
7958;DHT22;4024;52.172;5.378;2022-10-17T11:38:51;19.30;99.90
7958;DHT22;4024;52.172;5.378;2022-10-17T11:43:56;19.30;99.90
7958;DHT22;4024;52.172;5.378;2022-10-17T11:46:26;19.30;99.90
7958;DHT22;4024;52.172;5.378;2022-10-17T11:51:50;19.30;99.90
7958;DHT22;4024;52.172;5.378;2022-10-17T12:02:07;19.20;99.90
7958;DHT22;4024;52.172;5.378;2022-10-17T12:08:04;19.30;99.90
7958;DHT22;4024;52.172;5.378;2022-10-17T12:15:51;19.30;99.90
7958;DHT22;4024;52.172;5.378;2022-10-17T12:18:17;19.30;99.90
7958;DHT22;4024;52.172;5.378;2022-10-17T12:20:58;19.40;99.90
7958;DHT22;4024;52.172;5.378;2022-10-17T12:23:30;19.40;99.90
7958;DHT22;4024;52.172;5.378;2022-10-17T12:26:05;19.40;99.90
7958;DHT22;4024;52.172;5.378;2022-10-17T12:28:43;19.40;99.90
7958;DHT22;4024;52.172;5.378;2022-10-17T12:33:58;19.50;99.90
7958;DHT22;4024;52.172;5.378;2022-10-17T12:49:36;19.40;99.90
7958;DHT22;4024;52.172;5.378;2022-10-17T12:54:55;19.30;99.90
7958;DHT22;4024;52.172;5.378;2022-10-17T13:02:55;19.20;99.90
7958;DHT22;4024;52.172;5.378;2022-10-17T13:05:35;19.20;99.90
7958;DHT22;4024;52.172;5.378;2022-10-17T13:08:06;19.10;99.90
7958;DHT22;4024;52.172;5.378;2022-10-17T13:10:37;19.10;99.90
7958;DHT22;4024;52.172;5.378;2022-10-17T13:13:17;19.10;99.90
7958;DHT22;4024;52.172;5.378;2022-10-17T13:15:51;19.10;99.90
7958;DHT22;4024;52.172;5.378;2022-10-17T13:18:23;19.00;99.90
7958;DHT22;4024;52.172;5.378;2022-10-17T13:21:12;19.00;99.90
7958;DHT22;4024;52.172;5.378;2022-10-17T13:23:39;19.00;99.90
7958;DHT22;4024;52.172;5.378;2022-10-17T13:26:23;19.00;99.90
7958;DHT22;4024;52.172;5.378;2022-10-17T13:29:09;19.00;99.90
7958;DHT22;4024;52.172;5.378;2022-10-17T13:31:38;19.00;99.90
7958;DHT22;4024;52.172;5.378;2022-10-17T13:34:12;19.10;99.90
7958;DHT22;4024;52.172;5.378;2022-10-17T13:36:41;19.00;99.90
7958;DHT22;4024;52.172;5.378;2022-10-17T13:39:11;19.10;99.90
7958;DHT22;4024;52.172;5.378;2022-10-17T13:41:39;19.20;99.90
7958;DHT22;4024;52.172;5.378;2022-10-17T13:44:23;19.10;99.90
7958;DHT22;4024;52.172;5.378;2022-10-17T13:46:49;19.20;99.90
7958;DHT22;4024;52.172;5.378;2022-10-17T13:49:24;19.20;99.90
7958;DHT22;4024;52.172;5.378;2022-10-17T13:51:54;19.20;99.90
7958;DHT22;4024;52.172;5.378;2022-10-17T13:54:39;19.30;99.90
7958;DHT22;4024;52.172;5.378;2022-10-17T13:57:18;19.30;99.90
7958;DHT22;4024;52.172;5.378;2022-10-17T13:59:46;19.40;99.90
7958;DHT22;4024;52.172;5.378;2022-10-17T14:02:16;19.40;99.90
7958;DHT22;4024;52.172;5.378;2022-10-17T14:04:43;19.40;99.90
7958;DHT22;4024;52.172;5.378;2022-10-17T14:07:45;19.40;99.90
7958;DHT22;4024;52.172;5.378;2022-10-17T14:12:51;19.50;99.90
7958;DHT22;4024;52.172;5.378;2022-10-17T14:15:17;19.50;99.90
7958;DHT22;4024;52.172;5.378;2022-10-17T14:17:45;19.50;99.90
7958;DHT22;4024;52.172;5.378;2022-10-17T14:20:18;19.40;99.90
7958;DHT22;4024;52.172;5.378;2022-10-17T14:22:45;19.50;99.90
7958;DHT22;4024;52.172;5.378;2022-10-17T14:25:37;19.50;99.90
7958;DHT22;4024;52.172;5.378;2022-10-17T14:30:47;19.60;99.90
7958;DHT22;4024;52.172;5.378;2022-10-17T14:33:22;19.60;99.90
7958;DHT22;4024;52.172;5.378;2022-10-17T14:35:49;19.60;99.90
7958;DHT22;4024;52.172;5.378;2022-10-17T14:38:16;19.60;99.90
7958;DHT22;4024;52.172;5.378;2022-10-17T14:40:49;19.70;99.90
7958;DHT22;4024;52.172;5.378;2022-10-17T14:43:20;19.70;99.90
7958;DHT22;4024;52.172;5.378;2022-10-17T14:45:47;19.70;99.90
7958;DHT22;4024;52.172;5.378;2022-10-17T14:48:15;19.70;99.90
7958;DHT22;4024;52.172;5.378;2022-10-17T14:50:42;19.70;99.90
7958;DHT22;4024;52.172;5.378;2022-10-17T14:53:27;19.70;99.90
7958;DHT22;4024;52.172;5.378;2022-10-17T14:55:59;19.80;99.90
7958;DHT22;4024;52.172;5.378;2022-10-17T14:58:27;19.80;99.90
7958;DHT22;4024;52.172;5.378;2022-10-17T15:00:54;19.70;99.90
7958;DHT22;4024;52.172;5.378;2022-10-17T15:03:20;19.70;99.90
7958;DHT22;4024;52.172;5.378;2022-10-17T15:05:46;19.70;99.90
7958;DHT22;4024;52.172;5.378;2022-10-17T15:08:17;19.70;99.90
7958;DHT22;4024;52.172;5.378;2022-10-17T15:10:43;19.70;99.90
7958;DHT22;4024;52.172;5.378;2022-10-17T15:13:10;19.70;99.90
7958;DHT22;4024;52.172;5.378;2022-10-17T15:15:37;19.70;99.90
7958;DHT22;4024;52.172;5.378;2022-10-17T15:18:05;19.60;99.90
7958;DHT22;4024;52.172;5.378;2022-10-17T15:20:31;19.60;99.90
7958;DHT22;4024;52.172;5.378;2022-10-17T15:22:59;19.60;99.90
7958;DHT22;4024;52.172;5.378;2022-10-17T15:25:26;19.60;99.90
7958;DHT22;4024;52.172;5.378;2022-10-17T15:27:52;19.60;99.90
7958;DHT22;4024;52.172;5.378;2022-10-17T15:30:24;19.60;99.90
7958;DHT22;4024;52.172;5.378;2022-10-17T15:32:50;19.60;99.90
7958;DHT22;4024;52.172;5.378;2022-10-17T15:35:16;19.60;99.90
7958;DHT22;4024;52.172;5.378;2022-10-17T15:37:43;19.60;99.90
7958;DHT22;4024;52.172;5.378;2022-10-17T15:40:20;19.50;99.90
7958;DHT22;4024;52.172;5.378;2022-10-17T15:42:46;19.50;99.90
7958;DHT22;4024;52.172;5.378;2022-10-17T15:45:14;19.50;99.90
7958;DHT22;4024;52.172;5.378;2022-10-17T15:47:42;19.50;99.90
7958;DHT22;4024;52.172;5.378;2022-10-17T15:50:13;19.50;99.90
7958;DHT22;4024;52.172;5.378;2022-10-17T15:52:38;19.50;99.90
7958;DHT22;4024;52.172;5.378;2022-10-17T15:55:06;19.50;99.90
7958;DHT22;4024;52.172;5.378;2022-10-17T15:57:36;19.50;99.90
7958;DHT22;4024;52.172;5.378;2022-10-17T16:00:10;19.40;99.90
7958;DHT22;4024;52.172;5.378;2022-10-17T16:02:37;19.40;99.90
7958;DHT22;4024;52.172;5.378;2022-10-17T16:05:15;19.30;99.90
7958;DHT22;4024;52.172;5.378;2022-10-17T16:07:42;19.30;99.90
7958;DHT22;4024;52.172;5.378;2022-10-17T16:10:11;19.30;99.90
7958;DHT22;4024;52.172;5.378;2022-10-17T16:12:37;19.20;99.90
7958;DHT22;4024;52.172;5.378;2022-10-17T16:15:08;19.20;99.90
7958;DHT22;4024;52.172;5.378;2022-10-17T16:17:37;19.10;99.90
7958;DHT22;4024;52.172;5.378;2022-10-17T16:20:03;19.10;99.90
7958;DHT22;4024;52.172;5.378;2022-10-17T16:22:32;19.10;99.90
7958;DHT22;4024;52.172;5.378;2022-10-17T16:25:02;19.10;99.90
7958;DHT22;4024;52.172;5.378;2022-10-17T16:27:32;19.00;99.90
7958;DHT22;4024;52.172;5.378;2022-10-17T16:29:57;19.00;99.90
7958;DHT22;4024;52.172;5.378;2022-10-17T16:32:23;19.00;99.90
7958;DHT22;4024;52.172;5.378;2022-10-17T16:34:49;19.00;99.90
7958;DHT22;4024;52.172;5.378;2022-10-17T16:37:14;18.90;99.90
7958;DHT22;4024;52.172;5.378;2022-10-17T16:39:40;18.90;99.90
7958;DHT22;4024;52.172;5.378;2022-10-17T16:42:05;18.90;99.90
7958;DHT22;4024;52.172;5.378;2022-10-17T16:44:31;18.90;99.90
7958;DHT22;4024;52.172;5.378;2022-10-17T16:46:57;18.80;99.90
7958;DHT22;4024;52.172;5.378;2022-10-17T16:49:22;18.80;99.90
7958;DHT22;4024;52.172;5.378;2022-10-17T16:51:48;18.80;99.90
7958;DHT22;4024;52.172;5.378;2022-10-17T16:54:13;18.80;99.90
7958;DHT22;4024;52.172;5.378;2022-10-17T16:56:39;18.70;99.90
7958;DHT22;4024;52.172;5.378;2022-10-17T16:59:06;18.70;99.90
7958;DHT22;4024;52.172;5.378;2022-10-17T17:01:33;18.70;99.90
7958;DHT22;4024;52.172;5.378;2022-10-17T17:03:59;18.50;99.90
7958;DHT22;4024;52.172;5.378;2022-10-17T17:06:27;18.60;99.90
7958;DHT22;4024;52.172;5.378;2022-10-17T17:08:54;18.60;99.90
7958;DHT22;4024;52.172;5.378;2022-10-17T17:11:21;18.60;99.90
7958;DHT22;4024;52.172;5.378;2022-10-17T17:13:47;18.50;99.90
7958;DHT22;4024;52.172;5.378;2022-10-17T17:16:15;18.50;99.90
7958;DHT22;4024;52.172;5.378;2022-10-17T17:18:42;18.50;99.90
7958;DHT22;4024;52.172;5.378;2022-10-17T17:21:09;18.50;99.90
7958;DHT22;4024;52.172;5.378;2022-10-17T17:23:37;18.40;99.90
7958;DHT22;4024;52.172;5.378;2022-10-17T17:26:07;18.50;99.90
7958;DHT22;4024;52.172;5.378;2022-10-17T17:28:33;18.40;99.90
7958;DHT22;4024;52.172;5.378;2022-10-17T17:31:00;18.40;99.90
7958;DHT22;4024;52.172;5.378;2022-10-17T17:33:26;18.40;99.90
7958;DHT22;4024;52.172;5.378;2022-10-17T17:35:59;18.40;99.90
7958;DHT22;4024;52.172;5.378;2022-10-17T17:38:27;18.30;99.90
7958;DHT22;4024;52.172;5.378;2022-10-17T17:40:53;18.30;99.90
7958;DHT22;4024;52.172;5.378;2022-10-17T17:43:19;18.30;99.90
7958;DHT22;4024;52.172;5.378;2022-10-17T17:45:45;18.30;99.90
7958;DHT22;4024;52.172;5.378;2022-10-17T17:48:11;18.30;99.90
7958;DHT22;4024;52.172;5.378;2022-10-17T17:50:38;18.30;99.90
7958;DHT22;4024;52.172;5.378;2022-10-17T17:53:05;18.30;99.90
7958;DHT22;4024;52.172;5.378;2022-10-17T17:55:31;18.30;99.90
7958;DHT22;4024;52.172;5.378;2022-10-17T17:57:57;18.30;99.90
7958;DHT22;4024;52.172;5.378;2022-10-17T18:00:23;18.30;99.90
7958;DHT22;4024;52.172;5.378;2022-10-17T18:02:49;18.30;99.90
7958;DHT22;4024;52.172;5.378;2022-10-17T18:05:14;18.30;99.90
7958;DHT22;4024;52.172;5.378;2022-10-17T18:07:40;18.20;99.90
7958;DHT22;4024;52.172;5.378;2022-10-17T18:10:06;18.20;99.90
7958;DHT22;4024;52.172;5.378;2022-10-17T18:12:32;18.20;99.90
7958;DHT22;4024;52.172;5.378;2022-10-17T18:14:59;18.30;99.90
7958;DHT22;4024;52.172;5.378;2022-10-17T18:17:25;18.10;99.90
7958;DHT22;4024;52.172;5.378;2022-10-17T18:19:51;18.20;99.90
7958;DHT22;4024;52.172;5.378;2022-10-17T18:22:16;18.20;99.90
7958;DHT22;4024;52.172;5.378;2022-10-17T18:24:42;18.20;99.90
7958;DHT22;4024;52.172;5.378;2022-10-17T18:27:07;18.20;99.90